sensor_id;sensor_type;location;lat;lon;timestamp;pressure;altitude;pressure_sealevel;temperature;humidity
25526;BME280;13424;48.424;11.258;2023-03-16T00:00:45;95949.56;;;4.10;72.29
25526;BME280;13424;48.424;11.258;2023-03-16T00:03:12;95963.50;;;4.26;71.26
25526;BME280;13424;48.424;11.258;2023-03-16T00:05:48;95961.16;;;4.09;71.43
25526;BME280;13424;48.424;11.258;2023-03-16T00:08:15;95949.09;;;4.00;71.87
25526;BME280;13424;48.424;11.258;2023-03-16T00:10:41;95955.31;;;3.71;73.72
25526;BME280;13424;48.424;11.258;2023-03-16T00:13:19;95949.53;;;3.61;74.13
25526;BME280;13424;48.424;11.258;2023-03-16T00:16:00;95962.16;;;3.87;73.03
25526;BME280;13424;48.424;11.258;2023-03-16T00:18:29;95960.28;;;4.02;71.86
25526;BME280;13424;48.424;11.258;2023-03-16T00:21:00;95966.13;;;3.98;71.50
25526;BME280;13424;48.424;11.258;2023-03-16T00:23:30;95955.75;;;3.75;71.92
25526;BME280;13424;48.424;11.258;2023-03-16T00:26:05;95960.78;;;3.70;71.65
25526;BME280;13424;48.424;11.258;2023-03-16T00:28:40;95962.94;;;3.81;71.45
25526;BME280;13424;48.424;11.258;2023-03-16T00:31:10;95962.53;;;3.62;72.71
25526;BME280;13424;48.424;11.258;2023-03-16T00:33:40;95963.88;;;3.73;72.21
25526;BME280;13424;48.424;11.258;2023-03-16T00:36:08;95963.13;;;3.79;71.58
25526;BME280;13424;48.424;11.258;2023-03-16T00:38:40;95957.75;;;3.51;73.10
25526;BME280;13424;48.424;11.258;2023-03-16T00:41:15;95964.03;;;3.50;72.89
25526;BME280;13424;48.424;11.258;2023-03-16T00:43:42;95962.53;;;3.62;72.62
25526;BME280;13424;48.424;11.258;2023-03-16T00:46:14;95962.59;;;3.69;71.94
25526;BME280;13424;48.424;11.258;2023-03-16T00:48:44;95959.34;;;3.31;73.62
25526;BME280;13424;48.424;11.258;2023-03-16T00:51:13;95960.78;;;3.48;72.75
25526;BME280;13424;48.424;11.258;2023-03-16T00:53:42;95963.91;;;3.58;71.78
25526;BME280;13424;48.424;11.258;2023-03-16T00:56:09;95961.78;;;3.69;71.63
25526;BME280;13424;48.424;11.258;2023-03-16T00:58:39;95964.91;;;3.79;71.19
25526;BME280;13424;48.424;11.258;2023-03-16T01:01:16;95960.53;;;3.64;71.23
25526;BME280;13424;48.424;11.258;2023-03-16T01:03:43;95961.47;;;3.57;71.22
25526;BME280;13424;48.424;11.258;2023-03-16T01:06:12;95963.72;;;3.60;71.51
25526;BME280;13424;48.424;11.258;2023-03-16T01:08:41;95961.84;;;3.54;71.17
25526;BME280;13424;48.424;11.258;2023-03-16T01:11:11;95963.88;;;3.73;70.80
25526;BME280;13424;48.424;11.258;2023-03-16T01:13:38;95962.78;;;3.68;70.74
25526;BME280;13424;48.424;11.258;2023-03-16T01:16:05;95964.78;;;3.44;71.41
25526;BME280;13424;48.424;11.258;2023-03-16T01:18:37;95957.97;;;3.35;71.84
25526;BME280;13424;48.424;11.258;2023-03-16T01:21:06;95961.50;;;3.42;71.86
25526;BME280;13424;48.424;11.258;2023-03-16T01:23:35;95961.19;;;3.16;72.66
25526;BME280;13424;48.424;11.258;2023-03-16T01:26:01;95972.38;;;3.18;72.84
25526;BME280;13424;48.424;11.258;2023-03-16T01:28:30;95958.09;;;3.27;72.68
25526;BME280;13424;48.424;11.258;2023-03-16T01:31:06;95962.91;;;3.23;72.22
25526;BME280;13424;48.424;11.258;2023-03-16T01:37:07;95948.75;;;3.24;70.33
25526;BME280;13424;48.424;11.258;2023-03-16T01:39:42;95941.75;;;3.17;71.43
25526;BME280;13424;48.424;11.258;2023-03-16T01:42:09;95937.47;;;3.16;71.27
25526;BME280;13424;48.424;11.258;2023-03-16T01:44:57;95953.38;;;3.07;72.11
25526;BME280;13424;48.424;11.258;2023-03-16T01:47:31;95940.88;;;3.10;71.76
25526;BME280;13424;48.424;11.258;2023-03-16T01:50:04;95944.81;;;2.69;74.37
25526;BME280;13424;48.424;11.258;2023-03-16T01:52:34;95938.56;;;3.06;73.62
25526;BME280;13424;48.424;11.258;2023-03-16T01:55:07;95939.84;;;3.11;71.51
25526;BME280;13424;48.424;11.258;2023-03-16T01:57:36;95944.22;;;3.03;71.03
25526;BME280;13424;48.424;11.258;2023-03-16T02:00:14;95945.16;;;2.81;71.68
25526;BME280;13424;48.424;11.258;2023-03-16T02:03:02;95950.69;;;2.57;71.77
25526;BME280;13424;48.424;11.258;2023-03-16T02:06:15;95952.97;;;2.74;71.89
25526;BME280;13424;48.424;11.258;2023-03-16T02:08:46;95943.50;;;2.95;71.40
25526;BME280;13424;48.424;11.258;2023-03-16T02:11:13;95938.97;;;2.89;70.64
25526;BME280;13424;48.424;11.258;2023-03-16T02:13:51;95936.03;;;2.98;71.49
25526;BME280;13424;48.424;11.258;2023-03-16T02:16:18;95938.16;;;2.88;72.53
25526;BME280;13424;48.424;11.258;2023-03-16T02:18:48;95944.78;;;2.84;72.88
25526;BME280;13424;48.424;11.258;2023-03-16T02:23:50;95944.25;;;2.89;73.22
25526;BME280;13424;48.424;11.258;2023-03-16T02:29:16;95934.44;;;2.83;74.41
25526;BME280;13424;48.424;11.258;2023-03-16T02:31:47;95946.88;;;2.74;76.15
25526;BME280;13424;48.424;11.258;2023-03-16T02:34:15;95950.13;;;2.91;76.41
25526;BME280;13424;48.424;11.258;2023-03-16T02:36:42;95942.03;;;2.92;76.66
25526;BME280;13424;48.424;11.258;2023-03-16T02:39:10;95937.50;;;3.37;75.12
25526;BME280;13424;48.424;11.258;2023-03-16T02:41:44;95931.03;;;3.18;75.59
25526;BME280;13424;48.424;11.258;2023-03-16T02:44:18;95932.09;;;3.24;75.27
25526;BME280;13424;48.424;11.258;2023-03-16T02:46:49;95930.94;;;3.12;75.80
25526;BME280;13424;48.424;11.258;2023-03-16T02:49:38;95933.94;;;3.45;73.16
25526;BME280;13424;48.424;11.258;2023-03-16T02:52:06;95926.75;;;3.17;73.79
25526;BME280;13424;48.424;11.258;2023-03-16T02:54:32;95928.81;;;2.71;74.88
25526;BME280;13424;48.424;11.258;2023-03-16T02:56:58;95923.97;;;2.89;74.79
25526;BME280;13424;48.424;11.258;2023-03-16T02:59:26;95928.13;;;3.13;72.90
25526;BME280;13424;48.424;11.258;2023-03-16T03:01:52;95920.41;;;3.12;72.30
25526;BME280;13424;48.424;11.258;2023-03-16T03:04:18;95924.50;;;2.99;72.39
25526;BME280;13424;48.424;11.258;2023-03-16T03:06:47;95919.94;;;3.08;70.87
25526;BME280;13424;48.424;11.258;2023-03-16T03:09:13;95925.59;;;2.90;72.17
25526;BME280;13424;48.424;11.258;2023-03-16T03:11:40;95931.25;;;2.87;71.92
25526;BME280;13424;48.424;11.258;2023-03-16T03:14:06;95932.50;;;2.91;71.43
25526;BME280;13424;48.424;11.258;2023-03-16T03:16:33;95925.72;;;2.82;71.46
25526;BME280;13424;48.424;11.258;2023-03-16T03:18:59;95924.19;;;2.73;71.26
25526;BME280;13424;48.424;11.258;2023-03-16T03:21:27;95919.44;;;2.68;71.50
25526;BME280;13424;48.424;11.258;2023-03-16T03:23:53;95922.81;;;2.62;72.10
25526;BME280;13424;48.424;11.258;2023-03-16T03:26:20;95927.81;;;2.57;73.00
25526;BME280;13424;48.424;11.258;2023-03-16T03:28:47;95926.25;;;2.33;72.23
25526;BME280;13424;48.424;11.258;2023-03-16T03:31:18;95923.69;;;2.10;74.09
25526;BME280;13424;48.424;11.258;2023-03-16T03:33:44;95922.63;;;2.64;72.03
25526;BME280;13424;48.424;11.258;2023-03-16T03:36:11;95921.63;;;2.50;72.23
25526;BME280;13424;48.424;11.258;2023-03-16T03:38:39;95925.44;;;2.47;71.75
25526;BME280;13424;48.424;11.258;2023-03-16T03:41:06;95919.44;;;2.24;72.19
25526;BME280;13424;48.424;11.258;2023-03-16T03:43:35;95921.81;;;2.48;71.49
25526;BME280;13424;48.424;11.258;2023-03-16T03:46:02;95910.16;;;2.28;73.23
25526;BME280;13424;48.424;11.258;2023-03-16T03:48:30;95905.81;;;2.06;74.68
25526;BME280;13424;48.424;11.258;2023-03-16T03:50:56;95903.53;;;2.03;75.85
25526;BME280;13424;48.424;11.258;2023-03-16T03:53:45;95905.28;;;2.25;76.80
25526;BME280;13424;48.424;11.258;2023-03-16T03:56:33;95904.00;;;2.36;77.41
25526;BME280;13424;48.424;11.258;2023-03-16T03:58:59;95903.28;;;2.57;77.64
25526;BME280;13424;48.424;11.258;2023-03-16T04:01:51;95901.84;;;2.54;78.50
25526;BME280;13424;48.424;11.258;2023-03-16T04:04:19;95903.09;;;2.58;78.67
25526;BME280;13424;48.424;11.258;2023-03-16T04:06:45;95891.97;;;2.92;76.64
25526;BME280;13424;48.424;11.258;2023-03-16T04:09:11;95901.44;;;3.01;75.17
25526;BME280;13424;48.424;11.258;2023-03-16T04:11:38;95907.34;;;2.89;74.54
25526;BME280;13424;48.424;11.258;2023-03-16T04:14:04;95907.34;;;2.89;73.79
25526;BME280;13424;48.424;11.258;2023-03-16T04:16:30;95905.63;;;2.81;73.61
25526;BME280;13424;48.424;11.258;2023-03-16T04:18:56;95917.44;;;2.85;73.63
25526;BME280;13424;48.424;11.258;2023-03-16T04:21:23;95918.31;;;2.92;73.36
25526;BME280;13424;48.424;11.258;2023-03-16T04:23:49;95919.78;;;3.10;74.61
25526;BME280;13424;48.424;11.258;2023-03-16T04:26:21;95917.44;;;2.85;75.67
25526;BME280;13424;48.424;11.258;2023-03-16T04:28:47;95914.84;;;3.06;73.86
25526;BME280;13424;48.424;11.258;2023-03-16T04:31:16;95916.53;;;2.34;74.23
25526;BME280;13424;48.424;11.258;2023-03-16T04:33:59;95913.00;;;2.41;73.78
25526;BME280;13424;48.424;11.258;2023-03-16T04:36:26;95901.13;;;2.31;74.46
25526;BME280;13424;48.424;11.258;2023-03-16T04:39:05;95899.88;;;2.04;76.80
25526;BME280;13424;48.424;11.258;2023-03-16T04:41:31;95910.84;;;1.92;78.72
25526;BME280;13424;48.424;11.258;2023-03-16T04:44:07;95907.22;;;1.93;79.31
25526;BME280;13424;48.424;11.258;2023-03-16T04:46:33;95905.66;;;1.84;80.70
25526;BME280;13424;48.424;11.258;2023-03-16T04:49:06;95900.09;;;1.79;80.29
25526;BME280;13424;48.424;11.258;2023-03-16T04:51:36;95886.88;;;1.87;80.07
25526;BME280;13424;48.424;11.258;2023-03-16T04:54:11;95883.84;;;1.99;79.39
25526;BME280;13424;48.424;11.258;2023-03-16T04:56:40;95879.59;;;2.27;77.45
25526;BME280;13424;48.424;11.258;2023-03-16T04:59:10;95884.94;;;2.19;76.73
25526;BME280;13424;48.424;11.258;2023-03-16T05:02:01;95877.31;;;2.24;75.44
25526;BME280;13424;48.424;11.258;2023-03-16T05:04:27;95878.75;;;2.12;75.97
25526;BME280;13424;48.424;11.258;2023-03-16T05:07:35;95868.25;;;1.59;78.90
25526;BME280;13424;48.424;11.258;2023-03-16T05:10:02;95872.31;;;2.00;78.01
25526;BME280;13424;48.424;11.258;2023-03-16T05:12:29;95871.34;;;1.78;79.50
25526;BME280;13424;48.424;11.258;2023-03-16T05:14:59;95870.91;;;1.74;79.79
25526;BME280;13424;48.424;11.258;2023-03-16T05:17:45;95872.63;;;1.67;79.83
25526;BME280;13424;48.424;11.258;2023-03-16T05:20:13;95864.25;;;1.63;79.79
25526;BME280;13424;48.424;11.258;2023-03-16T05:22:45;95870.31;;;1.64;80.60
25526;BME280;13424;48.424;11.258;2023-03-16T05:25:19;95873.38;;;2.05;79.09
25526;BME280;13424;48.424;11.258;2023-03-16T05:27:51;95868.59;;;2.09;79.23
25526;BME280;13424;48.424;11.258;2023-03-16T05:30:26;95864.69;;;2.05;78.53
25526;BME280;13424;48.424;11.258;2023-03-16T05:32:54;95868.81;;;2.22;77.77
25526;BME280;13424;48.424;11.258;2023-03-16T05:35:22;95874.22;;;2.06;77.42
25526;BME280;13424;48.424;11.258;2023-03-16T05:37:48;95869.41;;;1.94;78.19
25526;BME280;13424;48.424;11.258;2023-03-16T05:40:17;95869.31;;;2.03;77.83
25526;BME280;13424;48.424;11.258;2023-03-16T05:42:55;95867.88;;;2.15;77.18
25526;BME280;13424;48.424;11.258;2023-03-16T05:45:23;95875.59;;;2.16;77.41
25526;BME280;13424;48.424;11.258;2023-03-16T05:47:59;95874.03;;;2.37;76.50
25526;BME280;13424;48.424;11.258;2023-03-16T05:50:26;95869.53;;;2.45;76.50
25526;BME280;13424;48.424;11.258;2023-03-16T05:52:53;95872.97;;;2.61;76.02
25526;BME280;13424;48.424;11.258;2023-03-16T05:55:22;95875.53;;;2.54;75.79
25526;BME280;13424;48.424;11.258;2023-03-16T05:57:57;95881.31;;;2.49;75.20
25526;BME280;13424;48.424;11.258;2023-03-16T06:00:24;95882.59;;;2.24;76.20
25526;BME280;13424;48.424;11.258;2023-03-16T06:02:59;95891.19;;;2.03;78.27
25526;BME280;13424;48.424;11.258;2023-03-16T06:05:29;95883.84;;;1.99;78.92
25526;BME280;13424;48.424;11.258;2023-03-16T06:07:57;95890.50;;;1.86;79.60
25526;BME280;13424;48.424;11.258;2023-03-16T06:10:49;95897.16;;;1.97;80.26
25526;BME280;13424;48.424;11.258;2023-03-16T06:13:17;95888.84;;;2.23;79.33
25526;BME280;13424;48.424;11.258;2023-03-16T06:15:43;95898.41;;;2.54;77.77
25526;BME280;13424;48.424;11.258;2023-03-16T06:18:10;95897.03;;;2.43;77.91
25526;BME280;13424;48.424;11.258;2023-03-16T06:21:23;95883.13;;;2.64;77.47
25526;BME280;13424;48.424;11.258;2023-03-16T06:23:52;95889.19;;;3.15;75.75
25526;BME280;13424;48.424;11.258;2023-03-16T06:26:19;95890.13;;;3.07;76.38
25526;BME280;13424;48.424;11.258;2023-03-16T06:28:47;95897.19;;;3.22;75.45
25526;BME280;13424;48.424;11.258;2023-03-16T06:31:13;95896.22;;;3.44;74.84
25526;BME280;13424;48.424;11.258;2023-03-16T06:33:39;95893.03;;;3.13;75.91
25526;BME280;13424;48.424;11.258;2023-03-16T06:36:06;95890.81;;;2.95;76.28
25526;BME280;13424;48.424;11.258;2023-03-16T06:39:27;95894.44;;;2.94;77.69
25526;BME280;13424;48.424;11.258;2023-03-16T06:41:53;95890.00;;;3.16;77.04
25526;BME280;13424;48.424;11.258;2023-03-16T06:44:19;95897.06;;;3.30;77.08
25526;BME280;13424;48.424;11.258;2023-03-16T06:46:58;95885.97;;;2.98;77.85
25526;BME280;13424;48.424;11.258;2023-03-16T06:49:24;95887.69;;;3.06;77.88
25526;BME280;13424;48.424;11.258;2023-03-16T06:51:51;95886.91;;;2.91;78.23
25526;BME280;13424;48.424;11.258;2023-03-16T06:54:18;95889.31;;;2.71;79.51
25526;BME280;13424;48.424;11.258;2023-03-16T06:56:43;95883.16;;;3.00;78.65
25526;BME280;13424;48.424;11.258;2023-03-16T06:59:09;95887.59;;;2.63;79.09
25526;BME280;13424;48.424;11.258;2023-03-16T07:01:36;95891.13;;;3.06;78.18
25526;BME280;13424;48.424;11.258;2023-03-16T07:04:02;95884.81;;;3.01;78.86
25526;BME280;13424;48.424;11.258;2023-03-16T07:06:30;95881.00;;;2.89;79.28
25526;BME280;13424;48.424;11.258;2023-03-16T07:12:25;95879.25;;;3.53;77.46
25526;BME280;13424;48.424;11.258;2023-03-16T07:14:52;95888.91;;;3.25;78.62
25526;BME280;13424;48.424;11.258;2023-03-16T07:17:20;95883.13;;;3.79;77.50
25526;BME280;13424;48.424;11.258;2023-03-16T07:19:46;95889.94;;;3.67;77.76
25526;BME280;13424;48.424;11.258;2023-03-16T07:22:13;95872.84;;;3.62;78.56
25526;BME280;13424;48.424;11.258;2023-03-16T07:24:40;95881.50;;;3.78;77.29
25526;BME280;13424;48.424;11.258;2023-03-16T07:27:06;95877.03;;;3.78;78.26
25526;BME280;13424;48.424;11.258;2023-03-16T07:29:32;95877.44;;;3.54;78.29
25526;BME280;13424;48.424;11.258;2023-03-16T07:32:01;95885.78;;;3.57;78.64
25526;BME280;13424;48.424;11.258;2023-03-16T07:34:34;95890.53;;;3.90;78.19
25526;BME280;13424;48.424;11.258;2023-03-16T07:37:01;95886.53;;;3.51;78.23
25526;BME280;13424;48.424;11.258;2023-03-16T07:39:30;95893.44;;;3.52;79.03
25526;BME280;13424;48.424;11.258;2023-03-16T07:42:13;95900.44;;;4.09;77.85
25526;BME280;13424;48.424;11.258;2023-03-16T07:45:06;95901.63;;;4.07;77.81
25526;BME280;13424;48.424;11.258;2023-03-16T07:47:33;95893.63;;;4.22;77.44
25526;BME280;13424;48.424;11.258;2023-03-16T07:50:05;95898.94;;;4.00;77.69
25526;BME280;13424;48.424;11.258;2023-03-16T07:52:32;95905.00;;;3.73;77.48
25526;BME280;13424;48.424;11.258;2023-03-16T07:54:58;95908.09;;;4.60;76.39
25526;BME280;13424;48.424;11.258;2023-03-16T07:57:33;95912.22;;;4.69;75.81
25526;BME280;13424;48.424;11.258;2023-03-16T07:59:59;95914.94;;;5.44;74.77
25526;BME280;13424;48.424;11.258;2023-03-16T08:02:39;95916.09;;;5.15;73.76
25526;BME280;13424;48.424;11.258;2023-03-16T08:05:07;95909.31;;;4.64;73.94
25526;BME280;13424;48.424;11.258;2023-03-16T08:07:40;95918.09;;;5.06;73.84
25526;BME280;13424;48.424;11.258;2023-03-16T08:10:11;95919.19;;;4.84;75.46
25526;BME280;13424;48.424;11.258;2023-03-16T08:12:48;95912.50;;;4.88;74.19
25526;BME280;13424;48.424;11.258;2023-03-16T08:15:14;95919.75;;;4.38;74.67
25526;BME280;13424;48.424;11.258;2023-03-16T08:17:46;95922.03;;;4.82;74.89
25526;BME280;13424;48.424;11.258;2023-03-16T08:20:18;95918.19;;;5.32;73.20
25526;BME280;13424;48.424;11.258;2023-03-16T08:22:48;95918.19;;;5.32;73.07
25526;BME280;13424;48.424;11.258;2023-03-16T08:25:17;95925.16;;;5.53;71.95
25526;BME280;13424;48.424;11.258;2023-03-16T08:27:52;95926.13;;;5.39;72.89
25526;BME280;13424;48.424;11.258;2023-03-16T08:30:18;95920.22;;;5.44;72.57
25526;BME280;13424;48.424;11.258;2023-03-16T08:32:52;95919.84;;;5.47;72.56
25526;BME280;13424;48.424;11.258;2023-03-16T08:35:17;95929.13;;;5.97;71.77
25526;BME280;13424;48.424;11.258;2023-03-16T08:37:44;95930.97;;;6.10;72.31
25526;BME280;13424;48.424;11.258;2023-03-16T08:40:11;95927.72;;;6.34;72.08
25526;BME280;13424;48.424;11.258;2023-03-16T08:42:45;95922.41;;;6.08;71.95
25526;BME280;13424;48.424;11.258;2023-03-16T08:45:15;95919.50;;;6.62;70.77
25526;BME280;13424;48.424;11.258;2023-03-16T08:47:43;95921.94;;;6.70;70.61
25526;BME280;13424;48.424;11.258;2023-03-16T08:50:11;95925.13;;;6.99;70.38
25526;BME280;13424;48.424;11.258;2023-03-16T08:52:40;95926.75;;;7.07;68.48
25526;BME280;13424;48.424;11.258;2023-03-16T08:55:06;95919.91;;;7.37;68.50
25526;BME280;13424;48.424;11.258;2023-03-16T08:57:35;95921.78;;;7.23;68.68
25526;BME280;13424;48.424;11.258;2023-03-16T09:00:02;95918.94;;;7.18;69.58
25526;BME280;13424;48.424;11.258;2023-03-16T09:02:43;95918.75;;;7.20;69.57
25526;BME280;13424;48.424;11.258;2023-03-16T09:05:12;95919.78;;;7.19;68.64
25526;BME280;13424;48.424;11.258;2023-03-16T09:07:39;95914.38;;;7.39;68.65
25526;BME280;13424;48.424;11.258;2023-03-16T09:10:06;95911.53;;;7.72;67.44
25526;BME280;13424;48.424;11.258;2023-03-16T09:12:36;95916.94;;;7.59;67.76
25526;BME280;13424;48.424;11.258;2023-03-16T09:15:04;95910.72;;;7.33;69.34
25526;BME280;13424;48.424;11.258;2023-03-16T09:17:29;95913.19;;;7.35;68.07
25526;BME280;13424;48.424;11.258;2023-03-16T09:19:55;95909.38;;;7.11;68.46
25526;BME280;13424;48.424;11.258;2023-03-16T09:22:22;95906.47;;;7.64;67.99
25526;BME280;13424;48.424;11.258;2023-03-16T09:24:49;95914.13;;;7.47;68.74
25526;BME280;13424;48.424;11.258;2023-03-16T09:27:16;95906.06;;;7.67;67.77
25526;BME280;13424;48.424;11.258;2023-03-16T09:29:42;95916.75;;;7.53;68.06
25526;BME280;13424;48.424;11.258;2023-03-16T09:32:08;95918.09;;;7.69;65.37
25526;BME280;13424;48.424;11.258;2023-03-16T09:34:34;95921.31;;;7.40;66.11
25526;BME280;13424;48.424;11.258;2023-03-16T09:37:00;95908.28;;;8.01;65.68
25526;BME280;13424;48.424;11.258;2023-03-16T09:39:27;95912.69;;;8.14;65.91
25526;BME280;13424;48.424;11.258;2023-03-16T09:41:58;95918.28;;;7.74;67.01
25526;BME280;13424;48.424;11.258;2023-03-16T09:44:42;95914.63;;;7.69;67.33
25526;BME280;13424;48.424;11.258;2023-03-16T09:47:12;95910.88;;;7.83;66.09
25526;BME280;13424;48.424;11.258;2023-03-16T09:49:48;95915.16;;;8.34;65.03
25526;BME280;13424;48.424;11.258;2023-03-16T09:52:31;95919.69;;;8.58;65.71
25526;BME280;13424;48.424;11.258;2023-03-16T09:57:39;95917.59;;;8.10;64.01
25526;BME280;13424;48.424;11.258;2023-03-16T10:03:27;95915.44;;;8.94;64.84
25526;BME280;13424;48.424;11.258;2023-03-16T10:06:02;95911.72;;;8.77;64.93
25526;BME280;13424;48.424;11.258;2023-03-16T10:12:18;95911.59;;;8.22;63.44
25526;BME280;13424;48.424;11.258;2023-03-16T10:14:55;95907.03;;;8.29;63.88
25526;BME280;13424;48.424;11.258;2023-03-16T10:17:45;95901.28;;;8.38;65.10
25526;BME280;13424;48.424;11.258;2023-03-16T10:20:21;95897.22;;;8.54;63.91
25526;BME280;13424;48.424;11.258;2023-03-16T10:22:50;95894.34;;;8.56;64.42
25526;BME280;13424;48.424;11.258;2023-03-16T10:25:48;95892.28;;;8.58;64.64
25526;BME280;13424;48.424;11.258;2023-03-16T10:28:18;95894.75;;;8.78;63.27
25526;BME280;13424;48.424;11.258;2023-03-16T10:30:46;95898.00;;;8.80;64.09
25526;BME280;13424;48.424;11.258;2023-03-16T10:33:34;95898.34;;;8.65;64.12
25526;BME280;13424;48.424;11.258;2023-03-16T10:36:34;95886.75;;;9.14;64.38
25526;BME280;13424;48.424;11.258;2023-03-16T10:39:12;95886.00;;;9.07;62.69
25526;BME280;13424;48.424;11.258;2023-03-16T10:41:42;95873.81;;;9.00;64.04
25526;BME280;13424;48.424;11.258;2023-03-16T10:44:30;95880.13;;;8.87;64.24
25526;BME280;13424;48.424;11.258;2023-03-16T10:47:05;95872.34;;;9.52;62.47
25526;BME280;13424;48.424;11.258;2023-03-16T10:53:45;95867.94;;;8.79;63.47
25526;BME280;13424;48.424;11.258;2023-03-16T10:56:23;95864.09;;;9.23;63.83
25526;BME280;13424;48.424;11.258;2023-03-16T10:58:51;95858.91;;;9.17;61.76
25526;BME280;13424;48.424;11.258;2023-03-16T11:01:21;95862.50;;;9.83;61.15
25526;BME280;13424;48.424;11.258;2023-03-16T11:03:50;95864.75;;;9.37;62.07
25526;BME280;13424;48.424;11.258;2023-03-16T11:06:30;95861.19;;;8.95;64.00
25526;BME280;13424;48.424;11.258;2023-03-16T11:09:18;95849.94;;;9.11;63.04
25526;BME280;13424;48.424;11.258;2023-03-16T11:11:48;95851.28;;;8.65;63.64
25526;BME280;13424;48.424;11.258;2023-03-16T11:14:14;95852.47;;;9.06;63.73
25526;BME280;13424;48.424;11.258;2023-03-16T11:16:47;95843.09;;;9.04;60.75
25526;BME280;13424;48.424;11.258;2023-03-16T11:22:18;95849.59;;;9.38;62.66
25526;BME280;13424;48.424;11.258;2023-03-16T11:33:16;95836.88;;;9.82;60.21
25526;BME280;13424;48.424;11.258;2023-03-16T11:36:24;95832.22;;;9.65;60.76
25526;BME280;13424;48.424;11.258;2023-03-16T11:42:28;95831.22;;;9.90;62.58
25526;BME280;13424;48.424;11.258;2023-03-16T11:48:09;95827.84;;;9.94;61.26
25526;BME280;13424;48.424;11.258;2023-03-16T11:51:23;95833.09;;;10.01;59.86
25526;BME280;13424;48.424;11.258;2023-03-16T11:54:16;95806.97;;;9.68;60.61
25526;BME280;13424;48.424;11.258;2023-03-16T11:56:53;95810.66;;;10.44;58.14
25526;BME280;13424;48.424;11.258;2023-03-16T12:02:33;95811.81;;;10.24;59.49
25526;BME280;13424;48.424;11.258;2023-03-16T12:11:27;95792.03;;;9.78;59.52
25526;BME280;13424;48.424;11.258;2023-03-16T12:14:31;95790.94;;;10.45;59.14
25526;BME280;13424;48.424;11.258;2023-03-16T12:17:24;95794.03;;;9.95;59.45
25526;BME280;13424;48.424;11.258;2023-03-16T12:19:59;95787.91;;;10.53;60.13
25526;BME280;13424;48.424;11.258;2023-03-16T12:22:41;95794.84;;;9.84;58.30
25526;BME280;13424;48.424;11.258;2023-03-16T12:25:20;95780.03;;;9.88;59.73
25526;BME280;13424;48.424;11.258;2023-03-16T12:27:55;95794.66;;;10.20;58.48
25526;BME280;13424;48.424;11.258;2023-03-16T12:33:38;95791.88;;;10.03;58.80
25526;BME280;13424;48.424;11.258;2023-03-16T12:36:48;95782.19;;;9.79;58.28
25526;BME280;13424;48.424;11.258;2023-03-16T12:43:05;95787.19;;;9.75;59.49
25526;BME280;13424;48.424;11.258;2023-03-16T12:45:58;95787.00;;;10.12;58.46
25526;BME280;13424;48.424;11.258;2023-03-16T12:48:39;95772.81;;;9.76;58.30
25526;BME280;13424;48.424;11.258;2023-03-16T12:51:08;95764.63;;;9.90;58.82
25526;BME280;13424;48.424;11.258;2023-03-16T12:56:35;95763.59;;;10.38;59.20
25526;BME280;13424;48.424;11.258;2023-03-16T12:59:18;95762.88;;;10.19;58.30
25526;BME280;13424;48.424;11.258;2023-03-16T13:01:52;95757.56;;;10.30;57.43
25526;BME280;13424;48.424;11.258;2023-03-16T13:04:38;95749.69;;;10.12;57.51
25526;BME280;13424;48.424;11.258;2023-03-16T13:07:19;95755.38;;;10.79;56.84
25526;BME280;13424;48.424;11.258;2023-03-16T13:10:01;95756.63;;;10.88;58.58
25526;BME280;13424;48.424;11.258;2023-03-16T13:12:33;95757.50;;;10.66;57.11
25526;BME280;13424;48.424;11.258;2023-03-16T13:20:56;95752.81;;;11.13;55.27
25526;BME280;13424;48.424;11.258;2023-03-16T13:23:44;95759.50;;;10.99;56.59
25526;BME280;13424;48.424;11.258;2023-03-16T13:26:16;95748.03;;;10.46;56.21
25526;BME280;13424;48.424;11.258;2023-03-16T13:28:50;95758.13;;;10.44;56.64
25526;BME280;13424;48.424;11.258;2023-03-16T13:35:00;95748.13;;;10.63;56.04
25526;BME280;13424;48.424;11.258;2023-03-16T13:37:28;95741.66;;;10.59;57.40
25526;BME280;13424;48.424;11.258;2023-03-16T13:39:58;95742.47;;;10.88;56.85
25526;BME280;13424;48.424;11.258;2023-03-16T13:42:29;95738.06;;;10.82;57.59
25526;BME280;13424;48.424;11.258;2023-03-16T13:44:57;95749.56;;;11.11;57.26
25526;BME280;13424;48.424;11.258;2023-03-16T13:47:26;95739.72;;;10.83;56.71
25526;BME280;13424;48.424;11.258;2023-03-16T13:49:57;95746.72;;;11.01;56.15
25526;BME280;13424;48.424;11.258;2023-03-16T13:52:33;95741.81;;;11.55;55.93
25526;BME280;13424;48.424;11.258;2023-03-16T13:55:09;95737.28;;;11.72;56.19
25526;BME280;13424;48.424;11.258;2023-03-16T13:57:39;95730.22;;;11.32;55.49
25526;BME280;13424;48.424;11.258;2023-03-16T14:00:22;95725.03;;;10.57;56.26
25526;BME280;13424;48.424;11.258;2023-03-16T14:02:57;95734.44;;;11.00;58.40
25526;BME280;13424;48.424;11.258;2023-03-16T14:05:31;95723.53;;;11.18;56.50
25526;BME280;13424;48.424;11.258;2023-03-16T14:08:01;95730.72;;;11.01;57.93
25526;BME280;13424;48.424;11.258;2023-03-16T14:10:34;95735.00;;;11.30;57.47
25526;BME280;13424;48.424;11.258;2023-03-16T14:13:24;95729.56;;;11.59;56.10
25526;BME280;13424;48.424;11.258;2023-03-16T14:16:05;95720.25;;;11.44;55.81
25526;BME280;13424;48.424;11.258;2023-03-16T14:18:40;95725.19;;;10.90;56.66
25526;BME280;13424;48.424;11.258;2023-03-16T14:21:16;95715.91;;;11.38;55.54
25526;BME280;13424;48.424;11.258;2023-03-16T14:23:44;95722.78;;;11.06;56.55
25526;BME280;13424;48.424;11.258;2023-03-16T14:26:14;95722.38;;;11.76;56.75
25526;BME280;13424;48.424;11.258;2023-03-16T14:29:34;95717.16;;;11.19;56.49
25526;BME280;13424;48.424;11.258;2023-03-16T14:31:41;95704.47;;;10.98;56.03
25526;BME280;13424;48.424;11.258;2023-03-16T14:34:38;95700.88;;;10.75;56.74
25526;BME280;13424;48.424;11.258;2023-03-16T14:37:13;95707.53;;;10.89;56.49
25526;BME280;13424;48.424;11.258;2023-03-16T14:39:40;95711.81;;;11.19;56.94